createdAt,value
2022-08-11T00:02:35.169Z,22.86
2022-08-11T00:05:10.355Z,22.98
2022-08-11T00:08:03.629Z,23.06
2022-08-11T00:10:30.861Z,23.08
2022-08-11T00:13:01.062Z,22.54
2022-08-11T00:15:38.491Z,22.71
2022-08-11T00:18:06.957Z,22.80
2022-08-11T00:20:36.955Z,22.55
2022-08-11T00:23:11.749Z,22.35
2022-08-11T00:25:40.960Z,22.21
2022-08-11T00:28:34.535Z,22.61
2022-08-11T00:31:07.215Z,22.59
2022-08-11T00:33:45.992Z,22.79
2022-08-11T00:36:25.295Z,23.03
2022-08-11T00:38:54.151Z,23.01
2022-08-11T00:41:45.231Z,23.00
2022-08-11T00:44:46.146Z,22.77
2022-08-11T00:47:55.867Z,22.83
2022-08-11T00:50:56.014Z,22.69
2022-08-11T00:53:36.682Z,22.75
2022-08-11T00:56:34.327Z,22.91
2022-08-11T00:59:34.371Z,22.89
2022-08-11T01:02:15.557Z,22.73
2022-08-11T01:05:01.375Z,22.49
2022-08-11T01:08:01.457Z,22.55
2022-08-11T01:11:06.159Z,22.19
2022-08-11T01:13:32.731Z,22.07
2022-08-11T01:16:08.955Z,22.20
2022-08-11T01:18:44.676Z,22.09
2022-08-11T01:22:15.660Z,22.14
2022-08-11T01:25:01.133Z,22.24
2022-08-11T01:28:05.601Z,22.34
2022-08-11T01:31:06.436Z,22.44
2022-08-11T01:33:59.465Z,22.40
2022-08-11T01:36:45.043Z,22.21
2022-08-11T01:39:37.571Z,22.11
2022-08-11T01:42:38.561Z,21.99
2022-08-11T01:45:24.051Z,22.05
2022-08-11T01:48:10.949Z,21.75
2022-08-11T01:50:46.334Z,21.73
2022-08-11T01:53:18.184Z,21.43
2022-08-11T01:55:59.823Z,21.68
2022-08-11T01:58:43.507Z,21.69
2022-08-11T02:01:28.601Z,21.71
2022-08-11T02:04:08.132Z,21.85
2022-08-11T02:06:57.020Z,21.81
2022-08-11T02:09:49.715Z,21.80
2022-08-11T02:12:26.417Z,21.40
2022-08-11T02:15:07.333Z,21.20
2022-08-11T02:17:47.721Z,21.50
2022-08-11T02:20:44.598Z,21.32
2022-08-11T02:24:03.868Z,21.31
2022-08-11T02:26:25.709Z,21.29
2022-08-11T02:29:17.969Z,21.21
2022-08-11T02:32:28.903Z,21.24
2022-08-11T02:35:26.759Z,21.12
2022-08-11T02:38:00.841Z,21.11
2022-08-11T02:40:35.892Z,21.19
2022-08-11T02:43:20.231Z,21.14
2022-08-11T02:46:00.990Z,21.05
2022-08-11T02:48:55.057Z,21.07
2022-08-11T02:51:27.657Z,20.52
2022-08-11T02:54:09.726Z,20.57
2022-08-11T02:56:58.757Z,20.57
2022-08-11T02:59:43.697Z,20.78
2022-08-11T03:02:19.338Z,21.02
2022-08-11T03:04:55.357Z,20.64
2022-08-11T03:07:31.149Z,20.51
2022-08-11T03:10:05.689Z,20.75
2022-08-11T03:13:03.152Z,20.70
2022-08-11T03:15:59.588Z,20.57
2022-08-11T03:18:49.095Z,20.53
2022-08-11T03:21:50.633Z,20.27
2022-08-11T03:24:22.385Z,20.22
2022-08-11T03:27:01.274Z,20.47
2022-08-11T03:29:37.437Z,20.56
2022-08-11T03:32:11.275Z,20.51
2022-08-11T03:34:40.756Z,20.51
2022-08-11T03:37:50.940Z,20.24
2022-08-11T03:42:01.888Z,20.10
2022-08-11T03:44:23.231Z,20.27
2022-08-11T03:47:08.443Z,20.35
2022-08-11T03:50:00.912Z,20.14
2022-08-11T03:52:53.688Z,20.09
2022-08-11T03:55:40.554Z,20.26
2022-08-11T03:58:22.350Z,20.23
2022-08-11T04:01:23.014Z,19.95
2022-08-11T04:04:13.067Z,19.98
2022-08-11T04:07:18.873Z,19.29
2022-08-11T04:10:09.930Z,19.44
2022-08-11T04:12:52.216Z,19.68
2022-08-11T04:16:12.257Z,19.90
2022-08-11T04:18:40.887Z,19.77
2022-08-11T04:21:35.349Z,19.73
2022-08-11T04:24:37.877Z,20.01
2022-08-11T04:27:36.916Z,20.47
2022-08-11T04:30:14.669Z,20.27
2022-08-11T04:32:53.634Z,20.51
2022-08-11T04:35:53.609Z,20.68
2022-08-11T04:38:33.240Z,20.65
2022-08-11T04:41:57.274Z,20.68
2022-08-11T04:44:42.752Z,20.67
2022-08-11T04:47:34.556Z,20.70
2022-08-11T04:51:08.881Z,20.42
2022-08-11T04:54:30.501Z,20.05
2022-08-11T04:57:27.831Z,20.30
2022-08-11T05:00:28.903Z,20.40
2022-08-11T05:03:26.180Z,20.60
2022-08-11T05:06:01.702Z,20.44
2022-08-11T05:08:53.492Z,20.12
2022-08-11T05:11:38.802Z,20.58
2022-08-11T05:14:30.116Z,20.94
2022-08-11T05:17:27.885Z,20.96
2022-08-11T05:20:13.537Z,20.72
2022-08-11T05:23:09.239Z,20.73
2022-08-11T05:26:43.029Z,20.68
2022-08-11T05:29:24.172Z,21.07
2022-08-11T05:32:18.775Z,21.18
2022-08-11T05:34:53.835Z,21.36
2022-08-11T05:37:29.623Z,21.43
2022-08-11T05:40:19.854Z,21.54
2022-08-11T05:43:13.146Z,21.66
2022-08-11T05:46:04.716Z,21.72
2022-08-11T05:48:55.651Z,21.71
2022-08-11T05:51:55.351Z,21.75
2022-08-11T05:54:43.036Z,21.77
2022-08-11T05:57:44.077Z,21.89
2022-08-11T06:00:14.600Z,21.96
2022-08-11T06:02:43.787Z,22.02
2022-08-11T06:05:12.282Z,22.02
2022-08-11T06:07:49.631Z,22.07
2022-08-11T06:10:33.274Z,22.06
2022-08-11T06:13:01.360Z,22.14
2022-08-11T06:15:30.412Z,22.06
2022-08-11T06:18:01.209Z,22.11
2022-08-11T06:20:32.706Z,22.22
2022-08-11T06:23:04.129Z,22.28
2022-08-11T06:25:33.417Z,22.29
2022-08-11T06:28:00.977Z,22.29
2022-08-11T06:30:36.140Z,22.36
2022-08-11T06:33:04.579Z,22.44
2022-08-11T06:35:48.968Z,22.47
2022-08-11T06:38:25.898Z,22.53
2022-08-11T06:41:25.951Z,22.44
2022-08-11T06:44:13.841Z,22.37
2022-08-11T06:46:43.895Z,22.53
2022-08-11T06:49:31.719Z,22.62
2022-08-11T06:52:04.694Z,22.71
2022-08-11T06:54:36.728Z,22.77
2022-08-11T06:57:32.133Z,22.80
2022-08-11T07:00:21.024Z,22.91
2022-08-11T07:03:08.173Z,22.86
2022-08-11T07:05:44.750Z,22.77
2022-08-11T07:08:40.404Z,22.85
2022-08-11T07:11:28.719Z,22.81
2022-08-11T07:14:17.658Z,22.92
2022-08-11T07:16:47.923Z,23.09
2022-08-11T07:19:38.189Z,23.03
2022-08-11T07:22:26.038Z,22.84
2022-08-11T07:25:19.557Z,23.02
2022-08-11T07:28:09.668Z,23.02
2022-08-11T07:30:40.313Z,23.27
2022-08-11T07:33:08.600Z,23.52
2022-08-11T07:35:42.106Z,23.43
2022-08-11T07:38:22.046Z,23.55
2022-08-11T07:40:50.647Z,23.71
2022-08-11T07:43:17.607Z,23.82
2022-08-11T07:46:04.787Z,23.89
2022-08-11T07:48:52.149Z,23.95
2022-08-11T07:51:40.917Z,24.05
2022-08-11T07:54:16.504Z,24.00
2022-08-11T07:57:07.599Z,23.76
2022-08-11T08:00:00.926Z,23.73
2022-08-11T08:03:02.475Z,24.04
2022-08-11T08:05:48.740Z,24.17
2022-08-11T08:08:34.957Z,24.19
2022-08-11T08:11:25.939Z,24.30
2022-08-11T08:14:14.171Z,24.32
2022-08-11T08:17:01.114Z,24.58
2022-08-11T08:19:29.352Z,24.47
2022-08-11T08:22:07.097Z,24.36
2022-08-11T08:24:44.157Z,24.69
2022-08-11T08:27:13.715Z,24.94
2022-08-11T08:30:01.283Z,25.15
2022-08-11T08:32:28.814Z,25.28
2022-08-11T08:34:57.418Z,25.39
2022-08-11T08:37:46.398Z,25.41
2022-08-11T08:40:14.206Z,25.30
2022-08-11T08:42:56.515Z,25.33
2022-08-11T08:45:24.808Z,25.21
2022-08-11T08:48:04.146Z,25.58
2022-08-11T08:50:53.603Z,25.82
2022-08-11T08:53:29.610Z,25.88
2022-08-11T08:55:58.296Z,26.04
2022-08-11T08:58:25.829Z,26.13
2022-08-11T09:00:54.824Z,26.29
2022-08-11T09:03:40.932Z,26.38
2022-08-11T09:06:12.249Z,26.39
2022-08-11T09:08:40.832Z,26.46
2022-08-11T09:11:26.739Z,26.36
2022-08-11T09:14:05.491Z,26.42
2022-08-11T09:16:34.881Z,26.26
2022-08-11T09:19:02.624Z,26.28
2022-08-11T09:21:48.562Z,26.45
2022-08-11T09:24:36.703Z,26.63
2022-08-11T09:27:08.264Z,26.62
2022-08-11T09:29:36.022Z,26.79
2022-08-11T09:32:03.358Z,26.88
2022-08-11T09:34:30.586Z,26.83
2022-08-11T09:37:28.287Z,26.97
2022-08-11T09:40:27.426Z,26.69
2022-08-11T09:43:14.624Z,26.79
2022-08-11T09:45:50.450Z,26.85
2022-08-11T09:48:25.245Z,26.86
2022-08-11T09:50:54.876Z,27.04
2022-08-11T09:53:36.743Z,27.15
2022-08-11T09:56:33.339Z,27.05
2022-08-11T09:59:01.487Z,27.09
2022-08-11T10:01:34.118Z,27.31
2022-08-11T10:04:06.340Z,27.46
2022-08-11T10:06:56.077Z,27.44
2022-08-11T10:09:25.177Z,27.34
2022-08-11T10:11:58.567Z,27.44
2022-08-11T10:14:46.984Z,27.58
2022-08-11T10:17:15.915Z,27.43
2022-08-11T10:19:45.423Z,27.50
2022-08-11T10:22:51.070Z,27.78
2022-08-11T10:25:36.421Z,27.98
2022-08-11T10:28:28.162Z,28.18
2022-08-11T10:31:13.747Z,28.19
2022-08-11T10:34:03.218Z,28.03
2022-08-11T10:36:32.035Z,28.10
2022-08-11T10:39:01.782Z,28.06
2022-08-11T10:42:06.491Z,28.03
2022-08-11T10:44:44.536Z,28.07
2022-08-11T10:47:32.541Z,28.09
2022-08-11T10:50:19.219Z,28.18
2022-08-11T10:53:08.459Z,28.30
2022-08-11T10:55:58.563Z,28.29
2022-08-11T10:58:45.010Z,28.37
2022-08-11T11:01:13.072Z,28.43
2022-08-11T11:03:41.248Z,28.42
2022-08-11T11:06:44.766Z,28.44
2022-08-11T11:09:16.941Z,28.56
2022-08-11T11:12:07.318Z,28.62
2022-08-11T11:14:59.049Z,28.59
2022-08-11T11:17:46.940Z,28.63
2022-08-11T11:20:37.060Z,28.77
2022-08-11T11:23:13.765Z,28.70
2022-08-11T11:26:10.223Z,28.58
2022-08-11T11:29:18.898Z,28.66
2022-08-11T11:32:18.901Z,28.71
2022-08-11T11:35:09.905Z,28.84
2022-08-11T11:37:38.048Z,28.90
2022-08-11T11:40:14.584Z,28.74
2022-08-11T11:42:44.795Z,28.82
2022-08-11T11:45:23.348Z,28.93
2022-08-11T11:47:53.795Z,28.98
2022-08-11T11:50:31.438Z,28.94
2022-08-11T11:53:01.507Z,28.99
2022-08-11T11:55:29.638Z,28.91
2022-08-11T11:58:18.889Z,28.86
2022-08-11T12:01:06.136Z,28.66
2022-08-11T12:03:35.065Z,28.82
2022-08-11T12:06:02.829Z,28.86
2022-08-11T12:08:31.176Z,28.89
2022-08-11T12:11:36.383Z,29.11
2022-08-11T12:14:10.446Z,29.08
2022-08-11T12:16:40.992Z,29.15
2022-08-11T12:19:19.108Z,29.01
2022-08-11T12:22:05.001Z,29.03
2022-08-11T12:24:52.404Z,29.08
2022-08-11T12:27:24.209Z,29.16
2022-08-11T12:30:08.461Z,29.33
2022-08-11T12:32:37.050Z,29.32
2022-08-11T12:35:05.343Z,29.34
2022-08-11T12:37:36.780Z,29.37
2022-08-11T12:40:50.030Z,29.28
2022-08-11T12:43:40.703Z,29.29
2022-08-11T12:46:11.068Z,29.38
2022-08-11T12:49:04.020Z,29.45
2022-08-11T12:52:11.572Z,29.48
2022-08-11T12:54:44.578Z,29.20
2022-08-11T12:57:37.257Z,29.26
2022-08-11T13:00:26.688Z,29.40
2022-08-11T13:03:13.670Z,29.36
2022-08-11T13:05:44.763Z,29.29
2022-08-11T13:08:15.418Z,29.39
2022-08-11T13:11:02.592Z,29.45
2022-08-11T13:13:52.390Z,29.50
2022-08-11T13:16:17.949Z,29.43
2022-08-11T13:18:45.022Z,29.43
2022-08-11T13:21:20.014Z,29.47
2022-08-11T13:24:01.032Z,29.44
2022-08-11T13:26:43.676Z,29.66
2022-08-11T13:29:25.247Z,29.69
2022-08-11T13:31:54.294Z,29.68
2022-08-11T13:34:23.977Z,29.72
2022-08-11T13:36:53.691Z,29.57
2022-08-11T13:39:24.512Z,29.45
2022-08-11T13:41:55.078Z,29.68
2022-08-11T13:44:25.911Z,29.72
2022-08-11T13:46:58.666Z,29.63
2022-08-11T13:49:27.410Z,29.66
2022-08-11T13:51:55.887Z,29.63
2022-08-11T13:54:25.907Z,29.47
2022-08-11T13:56:56.233Z,29.64
2022-08-11T13:59:30.342Z,29.75
2022-08-11T14:02:28.620Z,29.73
2022-08-11T14:05:09.669Z,29.67
2022-08-11T14:07:45.485Z,29.69
2022-08-11T14:10:15.946Z,29.61
2022-08-11T14:13:06.389Z,29.65
2022-08-11T14:15:34.901Z,29.86
2022-08-11T14:18:07.331Z,29.84
2022-08-11T14:20:58.329Z,29.90
2022-08-11T14:23:44.748Z,29.76
2022-08-11T14:26:26.846Z,29.70
2022-08-11T14:28:55.101Z,29.63
2022-08-11T14:31:28.470Z,29.64
2022-08-11T14:34:00.199Z,29.75
2022-08-11T14:36:37.340Z,29.67
2022-08-11T14:39:18.086Z,29.84
2022-08-11T14:42:13.746Z,29.97
2022-08-11T14:45:03.257Z,29.95
2022-08-11T14:47:33.947Z,29.95
2022-08-11T14:50:11.375Z,29.87
2022-08-11T14:52:52.109Z,29.85
2022-08-11T14:55:38.960Z,29.92
2022-08-11T14:58:08.672Z,30.03
2022-08-11T15:00:36.478Z,30.08
2022-08-11T15:03:12.243Z,30.22
2022-08-11T15:05:41.736Z,30.30
2022-08-11T15:08:42.925Z,30.26
2022-08-11T15:11:33.298Z,30.33
2022-08-11T15:14:02.318Z,30.28
2022-08-11T15:16:48.605Z,30.12
2022-08-11T15:19:19.484Z,29.99
2022-08-11T15:22:05.256Z,29.94
2022-08-11T15:24:36.345Z,30.16
2022-08-11T15:27:27.728Z,30.23
2022-08-11T15:30:20.892Z,30.19
2022-08-11T15:33:26.848Z,30.23
2022-08-11T15:36:14.039Z,30.21
2022-08-11T15:38:55.139Z,30.15
2022-08-11T15:41:46.435Z,30.16
2022-08-11T15:45:01.649Z,30.17
2022-08-11T15:47:37.889Z,30.23
2022-08-11T15:50:11.127Z,30.27
2022-08-11T15:52:49.101Z,30.35
2022-08-11T15:55:16.411Z,30.28
2022-08-11T15:58:04.763Z,30.32
2022-08-11T16:00:58.979Z,30.39
2022-08-11T16:04:07.435Z,30.39
2022-08-11T16:06:38.439Z,30.34
2022-08-11T16:09:18.123Z,30.29
2022-08-11T16:11:47.402Z,30.35
2022-08-11T16:14:35.001Z,30.28
2022-08-11T16:17:03.537Z,30.33
2022-08-11T16:19:36.102Z,30.41
2022-08-11T16:22:08.039Z,30.44
2022-08-11T16:27:06.117Z,30.30
2022-08-11T16:27:34.046Z,30.37
2022-08-11T16:30:01.929Z,30.49
2022-08-11T16:32:31.285Z,30.50
2022-08-11T16:35:20.080Z,30.48
2022-08-11T16:38:06.569Z,30.39
2022-08-11T16:40:34.445Z,30.43
2022-08-11T16:43:23.592Z,30.36
2022-08-11T16:46:10.412Z,30.44
2022-08-11T16:48:39.975Z,30.61
2022-08-11T16:51:10.287Z,30.65
2022-08-11T16:53:59.648Z,30.79
2022-08-11T16:56:43.907Z,30.86
2022-08-11T16:59:18.015Z,30.87
2022-08-11T17:01:59.452Z,30.90
2022-08-11T17:05:10.055Z,30.82
2022-08-11T17:08:01.250Z,30.91
2022-08-11T17:10:56.652Z,30.94
2022-08-11T17:13:36.931Z,30.82
2022-08-11T17:16:07.968Z,30.73
2022-08-11T17:18:40.131Z,30.83
2022-08-11T17:21:08.881Z,30.77
2022-08-11T17:23:47.052Z,30.62
2022-08-11T17:26:21.071Z,30.66
2022-08-11T17:28:52.640Z,30.66
2022-08-11T17:31:40.118Z,30.69
2022-08-11T17:34:26.875Z,30.60
2022-08-11T17:36:55.393Z,30.54
2022-08-11T17:39:29.086Z,30.36
2022-08-11T17:42:15.593Z,30.24
2022-08-11T17:45:02.529Z,30.12
2022-08-11T17:47:49.267Z,30.28
2022-08-11T17:50:18.292Z,30.27
2022-08-11T17:53:05.657Z,30.02
2022-08-11T17:55:57.863Z,29.93
2022-08-11T17:58:45.136Z,30.06
2022-08-11T18:01:13.133Z,29.90
2022-08-11T18:03:53.090Z,29.97
2022-08-11T18:06:33.964Z,29.90
2022-08-11T18:09:22.471Z,29.97
2022-08-11T18:12:11.810Z,29.77
2022-08-11T18:15:00.557Z,29.63
2022-08-11T18:17:45.878Z,29.57
2022-08-11T18:20:31.175Z,29.56
2022-08-11T18:23:21.432Z,29.51
2022-08-11T18:26:30.578Z,29.50
2022-08-11T18:29:17.851Z,29.46
2022-08-11T18:32:08.372Z,29.36
2022-08-11T18:34:58.938Z,29.29
2022-08-11T18:37:53.286Z,29.16
2022-08-11T18:40:43.188Z,28.97
2022-08-11T18:43:31.081Z,28.82
2022-08-11T18:46:21.231Z,28.70
2022-08-11T18:49:15.530Z,28.62
2022-08-11T18:52:05.630Z,28.47
2022-08-11T18:54:55.318Z,28.34
2022-08-11T18:57:47.033Z,28.21
2022-08-11T19:00:37.320Z,28.13
2022-08-11T19:03:24.219Z,28.10
2022-08-11T19:06:39.411Z,27.98
2022-08-11T19:09:20.280Z,27.88
2022-08-11T19:12:08.006Z,27.86
2022-08-11T19:14:54.186Z,27.78
2022-08-11T19:17:44.172Z,27.69
2022-08-11T19:20:38.130Z,27.63
2022-08-11T19:23:26.533Z,27.59
2022-08-11T19:26:12.390Z,27.53
2022-08-11T19:29:00.580Z,27.46
2022-08-11T19:31:47.956Z,27.39
2022-08-11T19:34:35.777Z,27.35
2022-08-11T19:37:25.067Z,27.31
2022-08-11T19:40:12.800Z,27.22
2022-08-11T19:43:00.083Z,27.12
2022-08-11T19:45:50.571Z,27.06
2022-08-11T19:48:40.553Z,27.02
2022-08-11T19:51:28.302Z,26.94
2022-08-11T19:54:15.118Z,26.90
2022-08-11T19:57:02.615Z,26.89
2022-08-11T19:59:49.103Z,26.88
2022-08-11T20:02:35.102Z,26.84
2022-08-11T20:05:20.883Z,26.75
2022-08-11T20:08:07.317Z,26.69
2022-08-11T20:10:54.587Z,26.65
2022-08-11T20:13:41.754Z,26.65
2022-08-11T20:16:31.294Z,26.62
2022-08-11T20:19:18.120Z,26.59
2022-08-11T20:22:09.362Z,26.50
2022-08-11T20:24:56.842Z,26.42
2022-08-11T20:27:43.487Z,26.43
2022-08-11T20:30:29.198Z,26.30
2022-08-11T20:33:15.045Z,26.34
2022-08-11T20:36:00.488Z,26.32
2022-08-11T20:38:49.779Z,26.30
2022-08-11T20:41:58.566Z,26.27
2022-08-11T20:44:44.018Z,26.24
2022-08-11T20:47:30.568Z,26.09
2022-08-11T20:50:19.461Z,26.09
2022-08-11T20:53:06.608Z,26.04
2022-08-11T20:55:53.906Z,26.03
2022-08-11T21:01:46.827Z,25.99
2022-08-11T21:04:33.375Z,25.93
2022-08-11T21:07:28.687Z,25.89
2022-08-11T21:10:23.346Z,25.83
2022-08-11T21:13:25.027Z,25.83
2022-08-11T21:16:25.618Z,25.82
2022-08-11T21:19:59.872Z,25.75
2022-08-11T21:22:31.926Z,25.74
2022-08-11T21:25:18.391Z,25.70
2022-08-11T21:28:08.382Z,25.67
2022-08-11T21:30:57.663Z,25.64
2022-08-11T21:33:46.611Z,25.58
2022-08-11T21:36:33.710Z,25.51
2022-08-11T21:39:22.856Z,25.48
2022-08-11T21:42:13.155Z,25.44
2022-08-11T21:45:00.950Z,25.41
2022-08-11T21:47:48.268Z,25.17
2022-08-11T21:50:33.384Z,25.24
2022-08-11T21:53:19.627Z,25.30
2022-08-11T21:56:05.000Z,25.29
2022-08-11T21:58:51.522Z,25.27
2022-08-11T22:01:37.450Z,25.30
2022-08-11T22:04:24.203Z,25.36
2022-08-11T22:07:10.104Z,25.30
2022-08-11T22:09:56.515Z,25.25
2022-08-11T22:12:44.911Z,25.23
2022-08-11T22:15:31.704Z,25.17
2022-08-11T22:18:19.454Z,25.02
2022-08-11T22:21:05.598Z,24.98
2022-08-11T22:23:56.379Z,24.90
2022-08-11T22:26:42.916Z,24.83
2022-08-11T22:29:50.267Z,24.90
2022-08-11T22:32:38.503Z,24.92
2022-08-11T22:35:28.588Z,24.65
2022-08-11T22:38:15.918Z,24.56
2022-08-11T22:41:01.408Z,24.70
2022-08-11T22:43:46.699Z,24.67
2022-08-11T22:46:33.943Z,24.41
2022-08-11T22:49:20.889Z,24.43
2022-08-11T22:52:08.747Z,24.55
2022-08-11T22:54:54.972Z,24.57
2022-08-11T22:57:46.529Z,24.58
2022-08-11T23:00:47.838Z,24.42
2022-08-11T23:03:37.574Z,24.36
2022-08-11T23:06:25.287Z,24.46
2022-08-11T23:09:12.383Z,24.29
2022-08-11T23:12:07.674Z,24.17
2022-08-11T23:14:57.680Z,24.03
2022-08-11T23:17:43.593Z,23.97
2022-08-11T23:20:36.559Z,24.07
2022-08-11T23:23:32.790Z,24.07
2022-08-11T23:26:20.259Z,24.10
2022-08-11T23:29:06.311Z,23.99
2022-08-11T23:31:53.960Z,23.73
2022-08-11T23:35:03.732Z,23.79
2022-08-11T23:37:47.710Z,23.87
2022-08-11T23:40:32.899Z,23.89
2022-08-11T23:43:19.772Z,23.98
2022-08-11T23:46:05.090Z,24.02
2022-08-11T23:48:51.142Z,23.99
2022-08-11T23:51:40.960Z,23.84
2022-08-11T23:54:28.498Z,23.88
2022-08-11T23:57:14.361Z,23.87
2022-08-11T23:59:59.724Z,23.93
